Time,TemperatureF,DewpointF,PressureIn,WindDirection,WindDirectionDegrees,WindSpeedMPH,WindSpeedGustMPH,Humidity,HourlyPrecipIn,Conditions,Clouds,dailyrainin,SoftwareType,DateUTC
2013-04-19 00:04:00,66.5,59.0,30.07,SSE,150,0.0,2.0,78,0.00,,,0.00,weatherlink.com 1.10,2013-04-19 04:04:00,
2013-04-19 00:19:00,66.3,60.0,30.06,SSE,150,0.0,2.0,79,0.00,,,0.00,weatherlink.com 1.10,2013-04-19 04:19:00,
2013-04-19 00:34:00,66.2,60.0,30.06,SSE,150,0.0,1.0,79,0.00,,,0.00,weatherlink.com 1.10,2013-04-19 04:34:00,
2013-04-19 00:49:00,65.9,60.0,30.05,SSE,150,0.0,1.0,80,0.00,,,0.00,weatherlink.com 1.10,2013-04-19 04:49:00,
2013-04-19 01:19:00,65.8,60.0,30.04,SSE,151,0.0,1.0,81,0.00,,,0.00,weatherlink.com 1.10,2013-04-19 05:19:00,
2013-04-19 01:34:00,65.8,60.0,30.03,SSE,150,0.0,1.0,81,0.00,,,0.00,weatherlink.com 1.10,2013-04-19 05:34:00,
2013-04-19 01:49:00,65.8,60.0,30.01,SSE,150,0.0,1.0,82,0.00,,,0.00,weatherlink.com 1.10,2013-04-19 05:49:00,
2013-04-19 02:04:00,65.9,60.0,30.01,SSE,151,0.0,1.0,82,0.00,,,0.00,weatherlink.com 1.10,2013-04-19 06:04:00,
2013-04-19 02:19:00,66.1,61.0,30.00,SSE,166,0.0,3.0,82,0.00,,,0.00,weatherlink.com 1.10,2013-04-19 06:19:00,
2013-04-19 02:34:00,66.4,61.0,30.00,SSE,167,0.0,2.0,83,0.00,,,0.00,weatherlink.com 1.10,2013-04-19 06:34:00,
2013-04-19 02:49:00,66.7,61.0,29.99,SSE,159,0.0,3.0,83,0.00,,,0.00,weatherlink.com 1.10,2013-04-19 06:49:00,
2013-04-19 03:19:00,67.1,62.0,29.98,SSE,153,1.0,3.0,83,0.00,,,0.00,weatherlink.com 1.10,2013-04-19 07:19:00,
2013-04-19 03:34:00,67.2,62.0,29.97,SSE,153,0.0,1.0,83,0.00,,,0.00,weatherlink.com 1.10,2013-04-19 07:34:00,
2013-04-19 03:49:00,67.2,62.0,29.97,SSE,153,0.0,1.0,83,0.00,,,0.00,weatherlink.com 1.10,2013-04-19 07:49:00,
2013-04-19 04:04:00,67.3,62.0,29.96,South,170,0.0,3.0,83,0.00,,,0.00,weatherlink.com 1.10,2013-04-19 08:04:00,
2013-04-19 04:19:00,67.3,62.0,29.96,South,170,0.0,1.0,84,0.00,,,0.00,weatherlink.com 1.10,2013-04-19 08:19:00,
2013-04-19 04:34:00,67.1,63.0,29.95,South,175,0.0,2.0,85,0.00,,,0.00,weatherlink.com 1.10,2013-04-19 08:34:00,
2013-04-19 04:49:00,66.9,62.0,29.95,South,174,0.0,1.0,85,0.00,,,0.00,weatherlink.com 1.10,2013-04-19 08:49:00,
2013-04-19 05:04:00,66.9,63.0,29.95,South,175,0.0,1.0,86,0.00,,,0.00,weatherlink.com 1.10,2013-04-19 09:04:00,
2013-04-19 05:19:00,67.0,63.0,29.95,South,175,0.0,1.0,86,0.01,,,0.01,weatherlink.com 1.10,2013-04-19 09:19:00,
2013-04-19 05:34:00,67.0,63.0,29.95,South,169,2.0,3.0,87,0.01,,,0.01,weatherlink.com 1.10,2013-04-19 09:34:00,
2013-04-19 05:49:00,67.0,63.0,29.94,South,169,0.0,1.0,87,0.01,,,0.01,weatherlink.com 1.10,2013-04-19 09:49:00,
2013-04-19 06:04:00,66.9,63.0,29.94,South,169,1.0,2.0,88,0.01,,,0.01,weatherlink.com 1.10,2013-04-19 10:04:00,
2013-04-19 06:19:00,66.9,63.0,29.94,South,169,0.0,2.0,87,0.00,,,0.01,weatherlink.com 1.10,2013-04-19 10:19:00,
2013-04-19 06:34:00,66.9,63.0,29.94,South,169,0.0,3.0,87,0.00,,,0.01,weatherlink.com 1.10,2013-04-19 10:34:00,
2013-04-19 06:49:00,66.9,63.0,29.94,South,173,1.0,2.0,87,0.00,,,0.01,weatherlink.com 1.10,2013-04-19 10:49:00,
2013-04-19 07:04:00,66.8,63.0,29.94,South,171,0.0,2.0,87,0.00,,,0.01,weatherlink.com 1.10,2013-04-19 11:04:00,
2013-04-19 07:19:00,67.0,63.0,29.94,South,171,0.0,2.0,87,0.00,,,0.01,weatherlink.com 1.10,2013-04-19 11:19:00,
2013-04-19 07:34:00,67.1,63.0,29.94,South,173,0.0,3.0,87,0.00,,,0.01,weatherlink.com 1.10,2013-04-19 11:34:00,
2013-04-19 07:49:00,67.3,63.0,29.94,South,173,0.0,2.0,87,0.00,,,0.01,weatherlink.com 1.10,2013-04-19 11:49:00,
2013-04-19 08:04:00,67.6,64.0,29.94,South,173,0.0,2.0,87,0.00,,,0.01,weatherlink.com 1.10,2013-04-19 12:04:00,
2013-04-19 08:19:00,67.9,64.0,29.95,South,169,0.0,4.0,86,0.00,,,0.01,weatherlink.com 1.10,2013-04-19 12:19:00,
2013-04-19 08:34:00,68.2,64.0,29.94,SW,227,1.0,4.0,86,0.00,,,0.01,weatherlink.com 1.10,2013-04-19 12:34:00,
2013-04-19 08:49:00,68.7,64.0,29.94,South,169,0.0,4.0,84,0.00,,,0.01,weatherlink.com 1.10,2013-04-19 12:49:00,
2013-04-19 09:04:00,69.3,64.0,29.94,SSW,203,1.0,4.0,84,0.00,,,0.01,weatherlink.com 1.10,2013-04-19 13:04:00,
2013-04-19 09:20:00,70.1,64.0,29.95,South,173,0.0,4.0,82,0.00,,,0.01,weatherlink.com 1.10,2013-04-19 13:20:00,
2013-04-19 09:35:00,70.5,64.0,29.94,South,187,2.0,5.0,81,0.00,,,0.01,weatherlink.com 1.10,2013-04-19 13:35:00,
2013-04-19 09:50:00,70.9,64.0,29.94,South,188,1.0,6.0,80,0.00,,,0.01,weatherlink.com 1.10,2013-04-19 13:50:00,
2013-04-19 10:05:00,71.2,64.0,29.93,SSE,161,1.0,5.0,78,0.00,,,0.01,weatherlink.com 1.10,2013-04-19 14:05:00,
2013-04-19 10:20:00,72.1,65.0,29.93,SSE,159,1.0,9.0,78,0.00,,,0.01,weatherlink.com 1.10,2013-04-19 14:20:00,
2013-04-19 10:35:00,72.4,65.0,29.93,SE,132,1.0,6.0,77,0.00,,,0.01,weatherlink.com 1.10,2013-04-19 14:35:00,
2013-04-19 10:50:00,72.7,65.0,29.93,South,170,1.0,5.0,77,0.00,,,0.01,weatherlink.com 1.10,2013-04-19 14:50:00,
2013-04-19 11:05:00,73.4,65.0,29.92,SSW,199,1.0,5.0,76,0.00,,,0.01,weatherlink.com 1.10,2013-04-19 15:05:00,
2013-04-19 11:20:00,73.7,66.0,29.92,SSE,165,0.0,4.0,76,0.00,,,0.01,weatherlink.com 1.10,2013-04-19 15:20:00,
2013-04-19 11:35:00,74.6,66.0,29.92,South,178,1.0,6.0,75,0.00,,,0.01,weatherlink.com 1.10,2013-04-19 15:35:00,
2013-04-19 11:50:00,75.5,66.0,29.92,South,187,3.0,6.0,73,0.00,,,0.01,weatherlink.com 1.10,2013-04-19 15:50:00,
2013-04-19 12:05:00,76.4,67.0,29.89,SE,138,3.0,9.0,72,0.00,,,0.01,weatherlink.com 1.10,2013-04-19 16:05:00,
2013-04-19 12:20:00,77.5,67.0,29.89,ENE,63,3.0,7.0,70,0.00,,,0.01,weatherlink.com 1.10,2013-04-19 16:20:00,
2013-04-19 12:35:00,77.8,67.0,29.88,SSE,163,1.0,11.0,69,0.00,,,0.01,weatherlink.com 1.10,2013-04-19 16:35:00,
2013-04-19 12:50:00,78.2,67.0,29.86,South,178,5.0,7.0,68,0.00,,,0.01,weatherlink.com 1.10,2013-04-19 16:50:00,
2013-04-19 13:05:00,78.9,67.0,29.86,SSW,198,3.0,7.0,66,0.00,,,0.01,weatherlink.com 1.10,2013-04-19 17:05:00,
2013-04-19 13:20:00,79.4,67.0,29.85,South,190,2.0,8.0,66,0.00,,,0.01,weatherlink.com 1.10,2013-04-19 17:20:00,
2013-04-19 13:35:00,79.8,67.0,29.84,SE,128,2.0,7.0,66,0.00,,,0.01,weatherlink.com 1.10,2013-04-19 17:35:00,
2013-04-19 13:50:00,80.2,67.0,29.82,West,271,2.0,6.0,64,0.00,,,0.01,weatherlink.com 1.10,2013-04-19 17:50:00,
2013-04-19 14:05:00,79.7,67.0,29.83,South,171,3.0,5.0,66,0.00,,,0.01,weatherlink.com 1.10,2013-04-19 18:05:00,
2013-04-19 14:20:00,79.3,67.0,29.82,South,186,1.0,7.0,66,0.00,,,0.01,weatherlink.com 1.10,2013-04-19 18:20:00,
2013-04-19 14:35:00,79.5,67.0,29.81,South,185,1.0,8.0,66,0.00,,,0.01,weatherlink.com 1.10,2013-04-19 18:35:00,
2013-04-19 14:50:00,79.7,67.0,29.80,South,173,5.0,6.0,65,0.00,,,0.01,weatherlink.com 1.10,2013-04-19 18:50:00,
2013-04-19 15:05:00,79.6,67.0,29.79,South,186,2.0,6.0,65,0.00,,,0.01,weatherlink.com 1.10,2013-04-19 19:05:00,
2013-04-19 15:20:00,79.9,67.0,29.78,South,173,1.0,7.0,65,0.00,,,0.01,weatherlink.com 1.10,2013-04-19 19:20:00,
2013-04-19 15:35:00,80.6,68.0,29.76,SSE,165,0.0,8.0,65,0.00,,,0.01,weatherlink.com 1.10,2013-04-19 19:35:00,
2013-04-19 15:50:00,81.2,67.0,29.76,South,175,3.0,7.0,62,0.00,,,0.01,weatherlink.com 1.10,2013-04-19 19:50:00,
2013-04-19 16:05:00,81.7,67.0,29.75,South,173,1.0,7.0,62,0.00,,,0.01,weatherlink.com 1.10,2013-04-19 20:05:00,
2013-04-19 16:21:00,81.8,67.0,29.75,SE,144,3.0,5.0,61,0.00,,,0.01,weatherlink.com 1.10,2013-04-19 20:21:00,
2013-04-19 16:36:00,82.1,68.0,29.75,West,261,1.0,5.0,63,0.00,,,0.01,weatherlink.com 1.10,2013-04-19 20:36:00,
2013-04-19 16:51:00,81.9,68.0,29.74,SSE,159,2.0,8.0,62,0.00,,,0.01,weatherlink.com 1.10,2013-04-19 20:51:00,
2013-04-19 17:06:00,81.5,68.0,29.74,SE,138,1.0,5.0,63,0.00,,,0.01,weatherlink.com 1.10,2013-04-19 21:06:00,
2013-04-19 17:21:00,81.1,67.0,29.73,SE,128,5.0,5.0,63,0.00,,,0.01,weatherlink.com 1.10,2013-04-19 21:21:00,
2013-04-19 17:36:00,80.9,67.0,29.73,SSE,153,0.0,9.0,63,0.00,,,0.01,weatherlink.com 1.10,2013-04-19 21:36:00,
2013-04-19 17:51:00,80.5,66.0,29.73,SSW,198,5.0,10.0,62,0.00,,,0.01,weatherlink.com 1.10,2013-04-19 21:51:00,
2013-04-19 18:06:00,80.4,65.0,29.73,SSW,196,2.0,8.0,60,0.00,,,0.01,weatherlink.com 1.10,2013-04-19 22:06:00,
2013-04-19 18:21:00,80.1,64.0,29.75,South,175,5.0,9.0,59,0.00,,,0.01,weatherlink.com 1.10,2013-04-19 22:21:00,
2013-04-19 18:36:00,79.7,64.0,29.76,South,171,1.0,5.0,60,0.00,,,0.01,weatherlink.com 1.10,2013-04-19 22:36:00,
2013-04-19 18:51:00,78.9,65.0,29.81,WNW,290,5.0,9.0,62,0.00,,,0.01,weatherlink.com 1.10,2013-04-19 22:51:00,
2013-04-19 19:06:00,71.9,62.0,29.82,SE,143,1.0,5.0,72,0.02,,,0.03,weatherlink.com 1.10,2013-04-19 23:06:00,
2013-04-19 19:21:00,67.7,61.0,29.81,South,182,1.0,3.0,80,0.03,,,0.04,weatherlink.com 1.10,2013-04-19 23:21:00,
2013-04-19 19:36:00,66.5,62.0,29.80,South,183,0.0,2.0,84,0.05,,,0.06,weatherlink.com 1.10,2013-04-19 23:36:00,
2013-04-19 19:51:00,66.1,62.0,29.81,South,170,1.0,4.0,86,0.06,,,0.07,weatherlink.com 1.10,2013-04-19 23:51:00,
2013-04-19 20:06:00,65.8,62.0,29.81,South,173,0.0,2.0,86,0.06,,,0.09,weatherlink.com 1.10,2013-04-20 00:06:00,
2013-04-19 20:21:00,65.7,62.0,29.82,South,171,0.0,3.0,87,0.07,,,0.11,weatherlink.com 1.10,2013-04-20 00:21:00,
2013-04-19 20:36:00,65.8,62.0,29.82,South,172,3.0,5.0,87,0.07,,,0.13,weatherlink.com 1.10,2013-04-20 00:36:00,
2013-04-19 20:51:00,65.8,62.0,29.83,South,190,2.0,5.0,88,0.07,,,0.14,weatherlink.com 1.10,2013-04-20 00:51:00,
2013-04-19 21:06:00,65.8,62.0,29.82,South,189,2.0,4.0,88,0.07,,,0.16,weatherlink.com 1.10,2013-04-20 01:06:00,
2013-04-19 21:21:00,65.7,62.0,29.83,SE,146,1.0,5.0,87,0.10,,,0.21,weatherlink.com 1.10,2013-04-20 01:21:00,
2013-04-19 21:36:00,65.6,62.0,29.83,SSW,198,1.0,4.0,88,0.13,,,0.26,weatherlink.com 1.10,2013-04-20 01:36:00,
2013-04-19 21:51:00,65.5,62.0,29.84,SSE,159,1.0,5.0,88,0.16,,,0.30,weatherlink.com 1.10,2013-04-20 01:51:00,
2013-04-19 22:06:00,65.5,62.0,29.83,SSE,166,0.0,4.0,88,0.18,,,0.34,weatherlink.com 1.10,2013-04-20 02:06:00,
2013-04-19 22:21:00,65.6,62.0,29.82,South,173,0.0,5.0,88,0.16,,,0.37,weatherlink.com 1.10,2013-04-20 02:21:00,
2013-04-19 22:36:00,65.6,62.0,29.81,South,169,0.0,4.0,88,0.13,,,0.39,weatherlink.com 1.10,2013-04-20 02:36:00,
2013-04-19 22:51:00,65.6,62.0,29.81,SSE,162,1.0,4.0,88,0.11,,,0.41,weatherlink.com 1.10,2013-04-20 02:51:00,
2013-04-19 23:06:00,65.6,62.0,29.79,SSE,165,1.0,4.0,88,0.09,,,0.43,weatherlink.com 1.10,2013-04-20 03:06:00,
2013-04-19 23:21:00,65.6,62.0,29.79,SSE,165,0.0,1.0,88,0.07,,,0.44,weatherlink.com 1.10,2013-04-20 03:21:00,
2013-04-19 23:36:00,65.4,62.0,29.81,SSE,165,0.0,2.0,88,0.05,,,0.45,weatherlink.com 1.10,2013-04-20 03:36:00,
2013-04-19 23:51:00,65.4,62.0,29.82,SSE,165,0.0,2.0,88,0.04,,,0.45,weatherlink.com 1.10,2013-04-20 03:51:00,